sensor_id;sensor_type;location;lat;lon;timestamp;pressure;altitude;pressure_sealevel;temperature;humidity
60015;BME280;45867;52.480;6.056;2023-04-08T00:00:10;102309.56;;;2.12;100.00
60015;BME280;45867;52.480;6.056;2023-04-08T00:02:35;102299.00;;;2.05;100.00
60015;BME280;45867;52.480;6.056;2023-04-08T00:05:05;102301.13;;;2.02;100.00
60015;BME280;45867;52.480;6.056;2023-04-08T00:07:33;102300.59;;;2.06;100.00
60015;BME280;45867;52.480;6.056;2023-04-08T00:09:59;102280.03;;;2.03;100.00
60015;BME280;45867;52.480;6.056;2023-04-08T00:12:24;102287.13;;;2.17;100.00
60015;BME280;45867;52.480;6.056;2023-04-08T00:14:50;102302.47;;;2.20;100.00
60015;BME280;45867;52.480;6.056;2023-04-08T00:17:15;102307.06;;;2.18;100.00
60015;BME280;45867;52.480;6.056;2023-04-08T00:19:42;102294.69;;;2.12;100.00
60015;BME280;45867;52.480;6.056;2023-04-08T00:22:07;102314.50;;;2.07;100.00
60015;BME280;45867;52.480;6.056;2023-04-08T00:24:33;102315.22;;;1.92;100.00
60015;BME280;45867;52.480;6.056;2023-04-08T00:26:58;102309.94;;;1.77;100.00
60015;BME280;45867;52.480;6.056;2023-04-08T00:29:24;102303.41;;;1.73;100.00
60015;BME280;45867;52.480;6.056;2023-04-08T00:31:49;102315.31;;;1.76;100.00
60015;BME280;45867;52.480;6.056;2023-04-08T00:34:15;102310.13;;;1.68;100.00
60015;BME280;45867;52.480;6.056;2023-04-08T00:36:41;102319.41;;;1.70;100.00
60015;BME280;45867;52.480;6.056;2023-04-08T00:39:06;102310.00;;;1.61;100.00
60015;BME280;45867;52.480;6.056;2023-04-08T00:41:35;102327.00;;;1.57;100.00
60015;BME280;45867;52.480;6.056;2023-04-08T00:44:00;102319.53;;;1.46;100.00
60015;BME280;45867;52.480;6.056;2023-04-08T00:46:26;102332.56;;;1.46;100.00
60015;BME280;45867;52.480;6.056;2023-04-08T00:48:53;102317.28;;;1.26;100.00
60015;BME280;45867;52.480;6.056;2023-04-08T00:51:19;102314.22;;;1.23;100.00
60015;BME280;45867;52.480;6.056;2023-04-08T00:53:44;102332.78;;;1.28;100.00
60015;BME280;45867;52.480;6.056;2023-04-08T00:56:10;102321.72;;;1.26;100.00
60015;BME280;45867;52.480;6.056;2023-04-08T00:58:36;102331.47;;;1.32;100.00
60015;BME280;45867;52.480;6.056;2023-04-08T01:06:49;102343.22;;;1.28;100.00
60015;BME280;45867;52.480;6.056;2023-04-08T01:09:20;102344.22;;;1.27;100.00
60015;BME280;45867;52.480;6.056;2023-04-08T01:11:49;102345.22;;;1.26;100.00
60015;BME280;45867;52.480;6.056;2023-04-08T01:14:19;102337.03;;;1.29;100.00
60015;BME280;45867;52.480;6.056;2023-04-08T01:16:46;102329.03;;;1.22;100.00
60015;BME280;45867;52.480;6.056;2023-04-08T01:19:19;102331.31;;;1.25;100.00
60015;BME280;45867;52.480;6.056;2023-04-08T01:21:48;102338.81;;;1.37;100.00
60015;BME280;45867;52.480;6.056;2023-04-08T01:24:22;102343.88;;;1.38;100.00
60015;BME280;45867;52.480;6.056;2023-04-08T01:26:51;102336.22;;;1.28;100.00
60015;BME280;45867;52.480;6.056;2023-04-08T01:29:18;102343.56;;;1.25;100.00
60015;BME280;45867;52.480;6.056;2023-04-08T01:31:56;102337.53;;;1.24;100.00
60015;BME280;45867;52.480;6.056;2023-04-08T01:34:23;102346.19;;;1.25;100.00
60015;BME280;45867;52.480;6.056;2023-04-08T01:36:49;102328.25;;;1.14;100.00
60015;BME280;45867;52.480;6.056;2023-04-08T01:39:16;102349.56;;;1.33;100.00
60015;BME280;45867;52.480;6.056;2023-04-08T01:41:44;102350.75;;;1.31;100.00
60015;BME280;45867;52.480;6.056;2023-04-08T01:44:10;102352.88;;;1.19;100.00
60015;BME280;45867;52.480;6.056;2023-04-08T01:46:38;102357.47;;;1.09;100.00
60015;BME280;45867;52.480;6.056;2023-04-08T01:49:05;102353.22;;;1.08;100.00
60015;BME280;45867;52.480;6.056;2023-04-08T01:51:32;102358.78;;;1.13;100.00
60015;BME280;45867;52.480;6.056;2023-04-08T01:53:58;102359.44;;;1.15;100.00
60015;BME280;45867;52.480;6.056;2023-04-08T01:56:26;102355.16;;;1.14;100.00
60015;BME280;45867;52.480;6.056;2023-04-08T01:58:53;102341.97;;;1.07;100.00
60015;BME280;45867;52.480;6.056;2023-04-08T02:01:21;102349.81;;;1.07;100.00
60015;BME280;45867;52.480;6.056;2023-04-08T02:03:49;102362.38;;;1.12;100.00
60015;BME280;45867;52.480;6.056;2023-04-08T02:06:16;102356.84;;;0.99;100.00
60015;BME280;45867;52.480;6.056;2023-04-08T02:08:42;102337.91;;;0.80;100.00
60015;BME280;45867;52.480;6.056;2023-04-08T02:11:07;102346.06;;;0.94;100.00
60015;BME280;45867;52.480;6.056;2023-04-08T02:13:32;102342.16;;;0.81;100.00
60015;BME280;45867;52.480;6.056;2023-04-08T02:16:22;102346.41;;;0.91;100.00
60015;BME280;45867;52.480;6.056;2023-04-08T02:19:14;102349.97;;;0.89;100.00
60015;BME280;45867;52.480;6.056;2023-04-08T02:21:48;102368.56;;;0.86;100.00
60015;BME280;45867;52.480;6.056;2023-04-08T02:24:17;102363.03;;;0.81;100.00
60015;BME280;45867;52.480;6.056;2023-04-08T02:26:43;102356.34;;;0.79;100.00
60015;BME280;45867;52.480;6.056;2023-04-08T02:29:12;102354.22;;;0.74;100.00
60015;BME280;45867;52.480;6.056;2023-04-08T02:31:47;102366.78;;;0.79;100.00
60015;BME280;45867;52.480;6.056;2023-04-08T02:34:14;102358.47;;;0.75;100.00
60015;BME280;45867;52.480;6.056;2023-04-08T02:36:40;102361.72;;;0.85;100.00
60015;BME280;45867;52.480;6.056;2023-04-08T02:39:07;102371.38;;;0.85;100.00
60015;BME280;45867;52.480;6.056;2023-04-08T02:41:32;102365.31;;;0.76;100.00
60015;BME280;45867;52.480;6.056;2023-04-08T02:43:58;102371.19;;;0.78;100.00
60015;BME280;45867;52.480;6.056;2023-04-08T02:46:23;102363.69;;;0.75;100.00
60015;BME280;45867;52.480;6.056;2023-04-08T02:48:49;102376.72;;;0.92;100.00
60015;BME280;45867;52.480;6.056;2023-04-08T02:51:14;102370.22;;;0.96;100.00
60015;BME280;45867;52.480;6.056;2023-04-08T02:53:40;102372.31;;;1.00;100.00
60015;BME280;45867;52.480;6.056;2023-04-08T02:56:05;102367.91;;;0.93;100.00
60015;BME280;45867;52.480;6.056;2023-04-08T02:58:31;102382.28;;;0.97;100.00
60015;BME280;45867;52.480;6.056;2023-04-08T03:00:56;102349.16;;;0.73;100.00
60015;BME280;45867;52.480;6.056;2023-04-08T03:03:21;102380.97;;;0.84;100.00
60015;BME280;45867;52.480;6.056;2023-04-08T03:05:56;102390.25;;;0.79;100.00
60015;BME280;45867;52.480;6.056;2023-04-08T03:08:22;102386.38;;;0.83;100.00
60015;BME280;45867;52.480;6.056;2023-04-08T03:10:48;102391.56;;;0.83;100.00
60015;BME280;45867;52.480;6.056;2023-04-08T03:13:14;102385.69;;;0.73;100.00
60015;BME280;45867;52.480;6.056;2023-04-08T03:15:40;102387.00;;;0.69;100.00
60015;BME280;45867;52.480;6.056;2023-04-08T03:18:05;102389.94;;;0.65;100.00
60015;BME280;45867;52.480;6.056;2023-04-08T03:20:31;102386.81;;;0.62;100.00
60015;BME280;45867;52.480;6.056;2023-04-08T03:22:56;102380.47;;;0.64;100.00
60015;BME280;45867;52.480;6.056;2023-04-08T03:25:21;102387.34;;;0.65;100.00
60015;BME280;45867;52.480;6.056;2023-04-08T03:27:47;102382.28;;;0.64;100.00
60015;BME280;45867;52.480;6.056;2023-04-08T03:30:12;102391.22;;;0.61;100.00
60015;BME280;45867;52.480;6.056;2023-04-08T03:32:37;102401.53;;;0.63;100.00
60015;BME280;45867;52.480;6.056;2023-04-08T03:35:04;102386.84;;;0.70;100.00
60015;BME280;45867;52.480;6.056;2023-04-08T03:37:29;102392.88;;;0.79;100.00
60015;BME280;45867;52.480;6.056;2023-04-08T03:39:55;102387.81;;;0.69;100.00
60015;BME280;45867;52.480;6.056;2023-04-08T03:42:20;102378.84;;;0.63;100.00
60015;BME280;45867;52.480;6.056;2023-04-08T03:44:45;102376.22;;;0.55;100.00
60015;BME280;45867;52.480;6.056;2023-04-08T03:47:11;102396.59;;;0.60;100.00
60015;BME280;45867;52.480;6.056;2023-04-08T03:49:36;102391.22;;;0.61;100.00
60015;BME280;45867;52.480;6.056;2023-04-08T03:52:01;102392.22;;;0.69;100.00
60015;BME280;45867;52.480;6.056;2023-04-08T03:54:27;102399.22;;;0.84;100.00
60015;BME280;45867;52.480;6.056;2023-04-08T03:56:52;102400.88;;;0.77;100.00
60015;BME280;45867;52.480;6.056;2023-04-08T03:59:18;102402.34;;;0.72;100.00
60015;BME280;45867;52.480;6.056;2023-04-08T04:01:43;102400.53;;;0.80;100.00
60015;BME280;45867;52.480;6.056;2023-04-08T04:04:08;102400.41;;;0.74;100.00
60015;BME280;45867;52.480;6.056;2023-04-08T04:06:34;102403.00;;;0.65;100.00
60015;BME280;45867;52.480;6.056;2023-04-08T04:08:59;102405.59;;;0.65;100.00
60015;BME280;45867;52.480;6.056;2023-04-08T04:11:25;102404.59;;;0.58;100.00
60015;BME280;45867;52.480;6.056;2023-04-08T04:13:50;102396.09;;;0.48;100.00
60015;BME280;45867;52.480;6.056;2023-04-08T04:16:15;102410.28;;;0.46;100.00
60015;BME280;45867;52.480;6.056;2023-04-08T04:18:41;102412.25;;;0.60;100.00
60015;BME280;45867;52.480;6.056;2023-04-08T04:21:06;102419.75;;;0.55;100.00
60015;BME280;45867;52.480;6.056;2023-04-08T04:23:32;102420.56;;;0.55;100.00
60015;BME280;45867;52.480;6.056;2023-04-08T04:25:58;102414.03;;;0.51;100.00
60015;BME280;45867;52.480;6.056;2023-04-08T04:28:23;102417.47;;;0.60;100.00
60015;BME280;45867;52.480;6.056;2023-04-08T04:30:55;102418.44;;;0.51;100.00
60015;BME280;45867;52.480;6.056;2023-04-08T04:33:21;102422.19;;;0.48;100.00
60015;BME280;45867;52.480;6.056;2023-04-08T04:35:46;102417.28;;;0.45;100.00
60015;BME280;45867;52.480;6.056;2023-04-08T04:38:11;102425.09;;;0.37;100.00
60015;BME280;45867;52.480;6.056;2023-04-08T04:40:38;102431.28;;;0.36;100.00
60015;BME280;45867;52.480;6.056;2023-04-08T04:43:03;102432.44;;;0.33;100.00
60015;BME280;45867;52.480;6.056;2023-04-08T04:45:29;102419.81;;;0.20;100.00
60015;BME280;45867;52.480;6.056;2023-04-08T04:47:54;102434.84;;;0.27;100.00
60015;BME280;45867;52.480;6.056;2023-04-08T04:50:19;102422.53;;;0.11;100.00
60015;BME280;45867;52.480;6.056;2023-04-08T04:52:45;102434.63;;;0.12;100.00
60015;BME280;45867;52.480;6.056;2023-04-08T04:55:11;102449.13;;;0.14;100.00
60015;BME280;45867;52.480;6.056;2023-04-08T04:57:36;102456.94;;;0.06;100.00
60015;BME280;45867;52.480;6.056;2023-04-08T05:00:01;102446.09;;;-0.07;100.00
60015;BME280;45867;52.480;6.056;2023-04-08T05:02:27;102453.47;;;-0.03;100.00
60015;BME280;45867;52.480;6.056;2023-04-08T05:04:52;102445.13;;;-0.06;100.00
60015;BME280;45867;52.480;6.056;2023-04-08T05:07:20;102473.47;;;-0.03;100.00
60015;BME280;45867;52.480;6.056;2023-04-08T05:09:45;102460.25;;;-0.10;100.00
60015;BME280;45867;52.480;6.056;2023-04-08T05:12:11;102468.47;;;0.04;100.00
60015;BME280;45867;52.480;6.056;2023-04-08T05:14:36;102466.81;;;0.03;100.00
60015;BME280;45867;52.480;6.056;2023-04-08T05:17:05;102468.81;;;0.09;100.00
60015;BME280;45867;52.480;6.056;2023-04-08T05:19:30;102466.22;;;0.09;100.00
60015;BME280;45867;52.480;6.056;2023-04-08T05:21:55;102462.28;;;0.05;100.00
60015;BME280;45867;52.480;6.056;2023-04-08T05:24:21;102474.34;;;0.06;100.00
60015;BME280;45867;52.480;6.056;2023-04-08T05:26:46;102482.50;;;0.11;100.00
60015;BME280;45867;52.480;6.056;2023-04-08T05:29:16;102471.13;;;0.12;100.00
60015;BME280;45867;52.480;6.056;2023-04-08T05:31:51;102473.22;;;0.08;100.00
60015;BME280;45867;52.480;6.056;2023-04-08T05:34:16;102475.00;;;0.08;100.00
60015;BME280;45867;52.480;6.056;2023-04-08T05:36:47;102469.81;;;0.16;100.00
60015;BME280;45867;52.480;6.056;2023-04-08T05:39:15;102482.88;;;0.24;100.00
60015;BME280;45867;52.480;6.056;2023-04-08T05:41:41;102492.72;;;0.30;100.00
60015;BME280;45867;52.480;6.056;2023-04-08T05:44:06;102486.50;;;0.31;100.00
60015;BME280;45867;52.480;6.056;2023-04-08T05:46:31;102487.31;;;0.32;100.00
60015;BME280;45867;52.480;6.056;2023-04-08T05:48:57;102485.88;;;0.37;100.00
60015;BME280;45867;52.480;6.056;2023-04-08T05:51:22;102482.31;;;0.38;100.00
60015;BME280;45867;52.480;6.056;2023-04-08T05:53:47;102482.19;;;0.56;100.00
60015;BME280;45867;52.480;6.056;2023-04-08T05:56:13;102488.75;;;0.60;100.00
60015;BME280;45867;52.480;6.056;2023-04-08T05:58:38;102479.94;;;0.70;100.00
60015;BME280;45867;52.480;6.056;2023-04-08T06:01:03;102484.34;;;0.69;100.00
60015;BME280;45867;52.480;6.056;2023-04-08T06:03:30;102487.44;;;0.64;100.00
60015;BME280;45867;52.480;6.056;2023-04-08T06:05:55;102482.19;;;0.56;100.00
60015;BME280;45867;52.480;6.056;2023-04-08T06:08:21;102486.47;;;0.57;100.00
60015;BME280;45867;52.480;6.056;2023-04-08T06:10:48;102492.16;;;0.61;100.00
60015;BME280;45867;52.480;6.056;2023-04-08T06:13:14;102495.75;;;0.68;100.00
60015;BME280;45867;52.480;6.056;2023-04-08T06:15:40;102493.31;;;0.66;100.00
60015;BME280;45867;52.480;6.056;2023-04-08T06:18:05;102511.94;;;0.80;100.00
60015;BME280;45867;52.480;6.056;2023-04-08T06:20:30;102507.72;;;0.87;100.00
60015;BME280;45867;52.480;6.056;2023-04-08T06:22:56;102517.88;;;1.06;100.00
60015;BME280;45867;52.480;6.056;2023-04-08T06:25:21;102499.41;;;1.00;100.00
60015;BME280;45867;52.480;6.056;2023-04-08T06:27:47;102509.22;;;1.14;100.00
60015;BME280;45867;52.480;6.056;2023-04-08T06:30:12;102525.56;;;1.32;100.00
60015;BME280;45867;52.480;6.056;2023-04-08T06:32:38;102521.31;;;1.31;100.00
60015;BME280;45867;52.480;6.056;2023-04-08T06:35:03;102515.59;;;1.52;100.00
60015;BME280;45867;52.480;6.056;2023-04-08T06:37:29;102519.69;;;1.55;100.00
60015;BME280;45867;52.480;6.056;2023-04-08T06:39:54;102548.59;;;1.78;100.00
60015;BME280;45867;52.480;6.056;2023-04-08T06:42:19;102535.66;;;1.85;100.00
60015;BME280;45867;52.480;6.056;2023-04-08T06:44:45;102550.81;;;2.06;100.00
60015;BME280;45867;52.480;6.056;2023-04-08T06:47:10;102538.19;;;2.17;100.00
60015;BME280;45867;52.480;6.056;2023-04-08T06:49:35;102543.19;;;2.43;100.00
60015;BME280;45867;52.480;6.056;2023-04-08T06:52:01;102527.78;;;2.57;100.00
60015;BME280;45867;52.480;6.056;2023-04-08T06:54:26;102541.88;;;2.79;100.00
60015;BME280;45867;52.480;6.056;2023-04-08T06:56:52;102545.34;;;3.02;100.00
60015;BME280;45867;52.480;6.056;2023-04-08T06:59:17;102561.19;;;3.32;100.00
60015;BME280;45867;52.480;6.056;2023-04-08T07:01:42;102563.09;;;3.61;100.00
60015;BME280;45867;52.480;6.056;2023-04-08T07:04:08;102564.41;;;3.80;100.00
60015;BME280;45867;52.480;6.056;2023-04-08T07:06:33;102570.59;;;4.02;100.00
60015;BME280;45867;52.480;6.056;2023-04-08T07:08:58;102568.63;;;4.04;100.00
60015;BME280;45867;52.480;6.056;2023-04-08T07:11:23;102582.25;;;4.14;100.00
60015;BME280;45867;52.480;6.056;2023-04-08T07:13:49;102572.94;;;4.12;100.00
60015;BME280;45867;52.480;6.056;2023-04-08T07:16:16;102557.03;;;4.13;100.00
60015;BME280;45867;52.480;6.056;2023-04-08T07:18:41;102579.66;;;4.29;100.00
60015;BME280;45867;52.480;6.056;2023-04-08T07:21:08;102577.56;;;4.25;100.00
60015;BME280;45867;52.480;6.056;2023-04-08T07:23:33;102573.03;;;4.33;100.00
60015;BME280;45867;52.480;6.056;2023-04-08T07:26:04;102577.41;;;4.41;100.00
60015;BME280;45867;52.480;6.056;2023-04-08T07:28:30;102579.63;;;4.88;100.00
60015;BME280;45867;52.480;6.056;2023-04-08T07:30:55;102574.94;;;6.26;100.00
60015;BME280;45867;52.480;6.056;2023-04-08T07:33:21;102567.38;;;7.19;100.00
60015;BME280;45867;52.480;6.056;2023-04-08T07:35:47;102559.09;;;8.60;100.00
60015;BME280;45867;52.480;6.056;2023-04-08T07:38:13;102542.38;;;9.11;100.00
60015;BME280;45867;52.480;6.056;2023-04-08T07:40:38;102542.59;;;9.35;100.00
60015;BME280;45867;52.480;6.056;2023-04-08T07:43:04;102528.66;;;9.71;100.00
60015;BME280;45867;52.480;6.056;2023-04-08T07:45:29;102530.09;;;10.29;100.00
60015;BME280;45867;52.480;6.056;2023-04-08T07:47:54;102529.91;;;10.24;100.00
60015;BME280;45867;52.480;6.056;2023-04-08T07:50:20;102543.34;;;10.48;100.00
60015;BME280;45867;52.480;6.056;2023-04-08T07:52:45;102553.94;;;10.29;100.00
60015;BME280;45867;52.480;6.056;2023-04-08T07:55:11;102562.59;;;10.55;100.00
60015;BME280;45867;52.480;6.056;2023-04-08T07:57:36;102567.16;;;10.66;100.00
60015;BME280;45867;52.480;6.056;2023-04-08T08:00:01;102568.19;;;11.37;100.00
60015;BME280;45867;52.480;6.056;2023-04-08T08:02:28;102572.38;;;12.15;100.00
60015;BME280;45867;52.480;6.056;2023-04-08T08:04:54;102570.09;;;12.88;100.00
60015;BME280;45867;52.480;6.056;2023-04-08T08:07:19;102579.38;;;13.65;100.00
60015;BME280;45867;52.480;6.056;2023-04-08T08:09:44;102590.66;;;13.72;100.00
60015;BME280;45867;52.480;6.056;2023-04-08T08:12:10;102591.59;;;14.60;100.00
60015;BME280;45867;52.480;6.056;2023-04-08T08:14:35;102603.22;;;14.32;100.00
60015;BME280;45867;52.480;6.056;2023-04-08T08:17:02;102594.19;;;13.94;100.00
60015;BME280;45867;52.480;6.056;2023-04-08T08:19:27;102610.03;;;13.67;100.00
60015;BME280;45867;52.480;6.056;2023-04-08T08:21:53;102611.22;;;12.97;100.00
60015;BME280;45867;52.480;6.056;2023-04-08T08:24:18;102613.13;;;13.59;100.00
60015;BME280;45867;52.480;6.056;2023-04-08T08:26:43;102598.97;;;13.42;100.00
60015;BME280;45867;52.480;6.056;2023-04-08T08:29:11;102628.19;;;13.87;100.00
60015;BME280;45867;52.480;6.056;2023-04-08T08:31:36;102621.50;;;14.24;100.00
60015;BME280;45867;52.480;6.056;2023-04-08T08:34:04;102618.94;;;15.00;100.00
60015;BME280;45867;52.480;6.056;2023-04-08T08:36:29;102631.59;;;15.09;100.00
60015;BME280;45867;52.480;6.056;2023-04-08T08:38:55;102615.50;;;14.33;100.00
60015;BME280;45867;52.480;6.056;2023-04-08T08:41:21;102640.41;;;13.83;100.00
60015;BME280;45867;52.480;6.056;2023-04-08T08:43:46;102632.31;;;13.16;100.00
60015;BME280;45867;52.480;6.056;2023-04-08T08:46:15;102628.16;;;12.79;100.00
60015;BME280;45867;52.480;6.056;2023-04-08T08:48:41;102625.25;;;12.40;100.00
60015;BME280;45867;52.480;6.056;2023-04-08T08:51:08;102624.50;;;12.05;100.00
60015;BME280;45867;52.480;6.056;2023-04-08T08:53:33;102624.50;;;11.93;100.00
60015;BME280;45867;52.480;6.056;2023-04-08T08:56:00;102616.84;;;11.85;100.00
60015;BME280;45867;52.480;6.056;2023-04-08T08:58:26;102621.88;;;11.51;100.00
60015;BME280;45867;52.480;6.056;2023-04-08T09:00:52;102622.09;;;11.38;100.00
60015;BME280;45867;52.480;6.056;2023-04-08T09:03:24;102612.88;;;10.80;100.00
60015;BME280;45867;52.480;6.056;2023-04-08T09:05:58;102630.25;;;10.94;100.00
60015;BME280;45867;52.480;6.056;2023-04-08T09:08:35;102632.84;;;11.13;100.00
60015;BME280;45867;52.480;6.056;2023-04-08T09:13:37;102627.13;;;11.27;100.00
60015;BME280;45867;52.480;6.056;2023-04-08T09:16:04;102626.13;;;11.40;100.00
60015;BME280;45867;52.480;6.056;2023-04-08T09:18:32;102624.09;;;11.77;100.00
60015;BME280;45867;52.480;6.056;2023-04-08T09:21:01;102619.63;;;12.37;100.00
60015;BME280;45867;52.480;6.056;2023-04-08T09:23:37;102614.84;;;12.91;100.00
60015;BME280;45867;52.480;6.056;2023-04-08T09:26:07;102592.75;;;13.36;100.00
60015;BME280;45867;52.480;6.056;2023-04-08T09:28:33;102596.13;;;14.43;100.00
60015;BME280;45867;52.480;6.056;2023-04-08T09:30:58;102618.44;;;15.03;100.00
60015;BME280;45867;52.480;6.056;2023-04-08T09:33:30;102630.84;;;14.04;100.00
60015;BME280;45867;52.480;6.056;2023-04-08T09:35:58;102628.31;;;14.14;100.00
60015;BME280;45867;52.480;6.056;2023-04-08T09:38:23;102641.31;;;15.80;100.00
60015;BME280;45867;52.480;6.056;2023-04-08T09:40:49;102666.38;;;16.69;100.00
60015;BME280;45867;52.480;6.056;2023-04-08T09:43:18;102668.94;;;17.12;100.00
60015;BME280;45867;52.480;6.056;2023-04-08T09:45:46;102666.00;;;17.18;100.00
60015;BME280;45867;52.480;6.056;2023-04-08T09:48:16;102683.19;;;18.04;100.00
60015;BME280;45867;52.480;6.056;2023-04-08T09:50:46;102686.41;;;17.70;100.00
60015;BME280;45867;52.480;6.056;2023-04-08T09:53:19;102689.59;;;18.99;100.00
60015;BME280;45867;52.480;6.056;2023-04-08T09:55:52;102686.03;;;19.82;100.00
60015;BME280;45867;52.480;6.056;2023-04-08T09:58:21;102688.09;;;20.20;95.00
60015;BME280;45867;52.480;6.056;2023-04-08T10:00:53;102685.09;;;20.69;89.84
60015;BME280;45867;52.480;6.056;2023-04-08T10:03:25;102679.59;;;19.44;82.07
60015;BME280;45867;52.480;6.056;2023-04-08T10:05:53;102677.44;;;19.80;81.47
60015;BME280;45867;52.480;6.056;2023-04-08T10:08:18;102673.09;;;18.61;81.09
60015;BME280;45867;52.480;6.056;2023-04-08T10:10:44;102667.63;;;18.87;83.48
60015;BME280;45867;52.480;6.056;2023-04-08T10:13:11;102676.16;;;17.06;88.70
60015;BME280;45867;52.480;6.056;2023-04-08T10:15:37;102665.69;;;18.22;99.68
60015;BME280;45867;52.480;6.056;2023-04-08T10:26:29;102680.72;;;21.30;73.33
60015;BME280;45867;52.480;6.056;2023-04-08T10:31:41;102670.25;;;22.08;55.84
60015;BME280;45867;52.480;6.056;2023-04-08T10:34:23;102676.69;;;22.90;63.03
60015;BME280;45867;52.480;6.056;2023-04-08T10:36:51;102678.25;;;23.49;56.69
60015;BME280;45867;52.480;6.056;2023-04-08T10:39:16;102675.53;;;23.04;49.11
60015;BME280;45867;52.480;6.056;2023-04-08T10:44:23;102679.78;;;21.21;52.33
60015;BME280;45867;52.480;6.056;2023-04-08T10:46:50;102662.13;;;20.53;60.20
60015;BME280;45867;52.480;6.056;2023-04-08T10:49:16;102669.44;;;19.36;71.70
60015;BME280;45867;52.480;6.056;2023-04-08T10:51:43;102657.09;;;18.95;76.10
60015;BME280;45867;52.480;6.056;2023-04-08T10:54:14;102664.69;;;17.72;84.63
60015;BME280;45867;52.480;6.056;2023-04-08T10:56:51;102652.88;;;17.32;88.99
60015;BME280;45867;52.480;6.056;2023-04-08T11:02:31;102645.84;;;15.80;100.00
60015;BME280;45867;52.480;6.056;2023-04-08T11:04:57;102648.78;;;16.20;100.00
60015;BME280;45867;52.480;6.056;2023-04-08T11:07:24;102653.16;;;15.94;100.00
60015;BME280;45867;52.480;6.056;2023-04-08T11:09:51;102634.84;;;15.76;100.00
60015;BME280;45867;52.480;6.056;2023-04-08T11:12:17;102649.91;;;16.30;100.00
60015;BME280;45867;52.480;6.056;2023-04-08T11:14:43;102656.53;;;16.80;100.00
60015;BME280;45867;52.480;6.056;2023-04-08T11:17:08;102648.88;;;16.41;100.00
60015;BME280;45867;52.480;6.056;2023-04-08T11:19:34;102636.16;;;15.73;100.00
60015;BME280;45867;52.480;6.056;2023-04-08T11:22:01;102644.84;;;15.91;100.00
60015;BME280;45867;52.480;6.056;2023-04-08T11:24:27;102649.00;;;15.76;100.00
60015;BME280;45867;52.480;6.056;2023-04-08T11:26:53;102652.88;;;16.38;100.00
60015;BME280;45867;52.480;6.056;2023-04-08T11:29:19;102652.91;;;16.43;100.00
60015;BME280;45867;52.480;6.056;2023-04-08T11:31:45;102650.69;;;15.83;100.00
60015;BME280;45867;52.480;6.056;2023-04-08T11:34:21;102653.25;;;15.13;100.00
60015;BME280;45867;52.480;6.056;2023-04-08T11:36:46;102648.75;;;14.92;100.00
60015;BME280;45867;52.480;6.056;2023-04-08T11:39:11;102654.81;;;14.60;100.00
60015;BME280;45867;52.480;6.056;2023-04-08T11:41:38;102647.56;;;14.38;100.00
60015;BME280;45867;52.480;6.056;2023-04-08T11:44:04;102638.31;;;14.63;100.00
60015;BME280;45867;52.480;6.056;2023-04-08T11:46:31;102645.50;;;14.84;100.00
60015;BME280;45867;52.480;6.056;2023-04-08T11:49:07;102640.84;;;14.75;100.00
60015;BME280;45867;52.480;6.056;2023-04-08T11:51:33;102651.88;;;15.38;100.00
60015;BME280;45867;52.480;6.056;2023-04-08T11:54:28;102646.53;;;16.60;100.00
60015;BME280;45867;52.480;6.056;2023-04-08T11:56:54;102648.44;;;18.44;100.00
60015;BME280;45867;52.480;6.056;2023-04-08T11:59:22;102649.22;;;19.43;93.17
60015;BME280;45867;52.480;6.056;2023-04-08T12:01:47;102645.72;;;20.54;86.95
60015;BME280;45867;52.480;6.056;2023-04-08T12:04:13;102624.50;;;21.04;76.29
60015;BME280;45867;52.480;6.056;2023-04-08T12:06:38;102646.34;;;21.41;74.94
60015;BME280;45867;52.480;6.056;2023-04-08T12:09:03;102642.63;;;21.83;66.44
60015;BME280;45867;52.480;6.056;2023-04-08T12:11:28;102644.47;;;22.29;62.48
60015;BME280;45867;52.480;6.056;2023-04-08T12:13:54;102644.75;;;22.78;61.42
60015;BME280;45867;52.480;6.056;2023-04-08T12:16:19;102642.16;;;22.87;62.98
60015;BME280;45867;52.480;6.056;2023-04-08T12:18:45;102653.25;;;22.99;56.92
60015;BME280;45867;52.480;6.056;2023-04-08T12:21:11;102643.31;;;22.94;58.69
60015;BME280;45867;52.480;6.056;2023-04-08T12:23:36;102643.81;;;23.19;57.24
60015;BME280;45867;52.480;6.056;2023-04-08T12:26:02;102648.50;;;23.49;57.42
60015;BME280;45867;52.480;6.056;2023-04-08T12:28:28;102636.28;;;23.07;54.76
60015;BME280;45867;52.480;6.056;2023-04-08T12:30:53;102631.94;;;22.83;55.82
60015;BME280;45867;52.480;6.056;2023-04-08T12:33:19;102633.97;;;23.45;58.42
60015;BME280;45867;52.480;6.056;2023-04-08T12:35:44;102651.72;;;23.83;57.80
60015;BME280;45867;52.480;6.056;2023-04-08T12:38:09;102651.34;;;23.76;55.97
60015;BME280;45867;52.480;6.056;2023-04-08T12:40:35;102638.22;;;22.93;56.61
60015;BME280;45867;52.480;6.056;2023-04-08T12:43:00;102642.13;;;23.00;58.00
60015;BME280;45867;52.480;6.056;2023-04-08T12:45:25;102645.06;;;23.35;56.44
60015;BME280;45867;52.480;6.056;2023-04-08T12:47:51;102653.59;;;23.74;55.06
60015;BME280;45867;52.480;6.056;2023-04-08T12:50:16;102645.78;;;23.49;54.50
60015;BME280;45867;52.480;6.056;2023-04-08T12:52:41;102639.59;;;23.04;51.50
60015;BME280;45867;52.480;6.056;2023-04-08T12:55:07;102649.78;;;23.07;60.19
60015;BME280;45867;52.480;6.056;2023-04-08T12:57:32;102643.41;;;23.03;60.71
60015;BME280;45867;52.480;6.056;2023-04-08T12:59:58;102640.25;;;22.87;59.65
60015;BME280;45867;52.480;6.056;2023-04-08T13:02:23;102639.47;;;23.32;57.37
60015;BME280;45867;52.480;6.056;2023-04-08T13:04:50;102652.22;;;23.09;57.07
60015;BME280;45867;52.480;6.056;2023-04-08T13:07:17;102634.50;;;22.66;51.54
60015;BME280;45867;52.480;6.056;2023-04-08T13:09:42;102642.69;;;23.11;60.02